Felt, Idaho
Current Conditions -  °F | °C
As of 9:56 PM on Wednesday 22 Oct 2014 (Local Time) from KDIJ Reporting Station
Clear Clear  
Wind Chill: 32°   Ceiling: Unl
Heat Index: 32°   Visibility: 10mi
Dew Point: 25°   Wind: 3mph
Humidity: 76%   Direction: 120°ESE
Pressure: 30.2"   Gusts: NA
Location:  43.87°N, 111.19°W
Report Text: KDIJ 230356Z AUTO 12003KT 10SM CLR 00/M04 A3020 RMK AO2 T00001038 SLP212
Loading
Personal Weather Stations






























Interactive Weather Map
Tropical Storm Tracking
New forecast layout! Learn more

10-Day Weather Forecast

Advertisements
Track Severe Weather on mobile